createdAt,value
2018-10-05T00:01:44.528Z,14.87
2018-10-05T00:04:19.122Z,13.33
2018-10-05T00:06:54.075Z,10.47
2018-10-05T00:09:28.197Z,11.67
2018-10-05T00:12:02.328Z,11.23
2018-10-05T00:14:36.194Z,12.93
2018-10-05T00:17:11.332Z,12.63
2018-10-05T00:19:45.872Z,16.70
2018-10-05T00:22:20.091Z,13.10
2018-10-05T00:24:54.508Z,11.57
2018-10-05T00:27:29.202Z,10.53
2018-10-05T00:30:03.127Z,12.23
2018-10-05T00:32:37.851Z,10.87
2018-10-05T00:35:12.568Z,13.27
2018-10-05T00:37:46.722Z,12.73
2018-10-05T00:40:21.221Z,12.17
2018-10-05T00:42:55.231Z,12.07
2018-10-05T00:45:29.083Z,12.63
2018-10-05T00:48:03.796Z,10.73
2018-10-05T00:50:38.101Z,11.27
2018-10-05T00:53:13.326Z,10.80
2018-10-05T00:55:48.063Z,10.07
2018-10-05T00:58:22.501Z,11.83
2018-10-05T01:00:56.813Z,12.27
2018-10-05T01:03:30.807Z,12.03
2018-10-05T01:06:05.037Z,10.83
2018-10-05T01:08:39.717Z,13.40
2018-10-05T01:11:13.965Z,14.13
2018-10-05T01:13:48.055Z,13.43
2018-10-05T01:16:22.417Z,9.20
2018-10-05T01:18:56.561Z,11.47
2018-10-05T01:21:30.679Z,10.00
2018-10-05T01:24:05.082Z,12.47
2018-10-05T01:26:40.201Z,10.87
2018-10-05T01:29:14.131Z,12.03
2018-10-05T01:31:49.201Z,11.00
2018-10-05T01:34:23.966Z,10.70
2018-10-05T01:36:58.812Z,9.87
2018-10-05T01:39:32.751Z,11.97
2018-10-05T01:42:07.547Z,10.83
2018-10-05T01:44:42.433Z,11.90
2018-10-05T01:47:16.597Z,9.87
2018-10-05T01:49:50.987Z,10.47
2018-10-05T01:52:25.913Z,9.83
2018-10-05T01:54:59.907Z,8.77
2018-10-05T01:57:34.297Z,11.13
2018-10-05T02:00:08.592Z,9.30
2018-10-05T02:02:43.100Z,9.50
2018-10-05T02:05:17.159Z,9.13
2018-10-05T02:07:51.856Z,12.97
2018-10-05T02:10:25.957Z,10.40
2018-10-05T02:13:00.066Z,12.40
2018-10-05T02:15:34.151Z,10.40
2018-10-05T02:18:09.243Z,9.47
2018-10-05T02:20:43.217Z,10.33
2018-10-05T02:23:17.218Z,11.23
2018-10-05T02:25:51.997Z,9.30
2018-10-05T02:28:26.412Z,9.97
2018-10-05T02:31:00.687Z,8.10
2018-10-05T02:33:34.863Z,10.97
2018-10-05T02:36:09.210Z,10.50
2018-10-05T02:38:43.617Z,12.93
2018-10-05T02:41:18.017Z,10.40
2018-10-05T02:43:53.045Z,11.17
2018-10-05T02:46:27.132Z,10.37
2018-10-05T02:49:01.118Z,10.47
2018-10-05T02:51:35.816Z,9.57
2018-10-05T02:54:10.200Z,10.77
2018-10-05T02:56:44.292Z,11.17
2018-10-05T02:59:19.050Z,11.43
2018-10-05T03:02:04.609Z,14.00
2018-10-05T03:04:38.906Z,10.27
2018-10-05T03:07:13.688Z,9.47
2018-10-05T03:09:47.841Z,9.70
2018-10-05T03:12:22.212Z,12.10
2018-10-05T03:14:56.283Z,11.47
2018-10-05T03:17:30.976Z,11.97
2018-10-05T03:20:05.258Z,11.87
2018-10-05T03:22:39.636Z,11.73
2018-10-05T03:25:14.409Z,10.97
2018-10-05T03:27:48.503Z,9.00
2018-10-05T03:30:22.365Z,10.53
2018-10-05T03:32:57.047Z,9.53
2018-10-05T03:35:31.583Z,10.10
2018-10-05T03:38:05.837Z,8.43
2018-10-05T03:40:40.193Z,10.03
2018-10-05T03:43:14.526Z,8.30
2018-10-05T03:45:48.832Z,11.80
2018-10-05T03:48:24.096Z,8.33
2018-10-05T03:50:58.067Z,11.30
2018-10-05T03:53:32.953Z,9.03
2018-10-05T03:56:07.702Z,9.47
2018-10-05T03:58:42.787Z,10.33
2018-10-05T04:01:16.977Z,10.03
2018-10-05T04:03:51.276Z,10.17
2018-10-05T04:06:25.312Z,9.10
2018-10-05T04:08:59.850Z,8.17
2018-10-05T04:11:34.006Z,9.70
2018-10-05T04:14:07.942Z,9.83
2018-10-05T04:16:42.908Z,9.93
2018-10-05T04:19:17.152Z,9.23
2018-10-05T04:21:51.362Z,9.27
2018-10-05T04:24:25.481Z,12.87
2018-10-05T04:26:59.613Z,11.23
2018-10-05T04:29:33.640Z,8.60
2018-10-05T04:32:07.901Z,9.07
2018-10-05T04:34:42.572Z,10.73
2018-10-05T04:37:16.856Z,11.63
2018-10-05T04:39:51.095Z,12.00
2018-10-05T04:42:25.356Z,12.00
2018-10-05T04:44:59.612Z,10.40
2018-10-05T04:47:33.865Z,12.73
2018-10-05T04:50:08.065Z,11.23
2018-10-05T04:52:42.472Z,12.17
2018-10-05T04:55:16.635Z,10.60
2018-10-05T04:57:50.673Z,10.43
2018-10-05T05:00:24.527Z,12.17
2018-10-05T05:02:58.962Z,10.90
2018-10-05T05:05:33.661Z,11.10
2018-10-05T05:08:08.647Z,10.50
2018-10-05T05:10:42.736Z,11.53
2018-10-05T05:13:17.036Z,12.03
2018-10-05T05:15:50.962Z,11.27
2018-10-05T05:18:25.103Z,12.07
2018-10-05T05:20:59.228Z,12.83
2018-10-05T05:23:33.298Z,9.90
2018-10-05T05:26:07.682Z,9.63
2018-10-05T05:28:42.266Z,9.80
2018-10-05T05:31:16.198Z,13.27
2018-10-05T05:33:51.249Z,12.17
2018-10-05T05:36:25.995Z,11.43
2018-10-05T05:39:00.097Z,11.33
2018-10-05T05:41:35.021Z,10.60
2018-10-05T05:44:09.400Z,10.10
2018-10-05T05:46:43.457Z,15.63
2018-10-05T05:49:17.735Z,13.43
2018-10-05T05:51:52.507Z,12.57
2018-10-05T05:54:26.764Z,15.90
2018-10-05T05:57:01.042Z,14.07
2018-10-05T05:59:36.681Z,21.43
2018-10-05T06:02:10.635Z,17.03
2018-10-05T06:04:44.727Z,13.90
2018-10-05T06:07:19.070Z,15.63
2018-10-05T06:09:53.306Z,17.47
2018-10-05T06:12:27.658Z,13.13
2018-10-05T06:15:02.196Z,12.07
2018-10-05T06:17:36.399Z,11.73
2018-10-05T06:20:10.971Z,13.00
2018-10-05T06:22:45.405Z,16.57
2018-10-05T06:25:23.640Z,15.20
2018-10-05T06:27:57.941Z,12.03
2018-10-05T06:30:32.541Z,14.57
2018-10-05T06:33:06.724Z,12.87
2018-10-05T06:35:40.936Z,13.57
2018-10-05T06:38:15.169Z,13.37
2018-10-05T06:40:49.271Z,13.63
2018-10-05T06:43:24.057Z,11.50
2018-10-05T06:45:58.573Z,15.50
2018-10-05T06:48:32.792Z,13.70
2018-10-05T06:51:06.882Z,12.60
2018-10-05T06:53:40.860Z,15.00
2018-10-05T06:56:15.681Z,14.40
2018-10-05T06:58:50.588Z,12.17
2018-10-05T07:01:24.820Z,12.97
2018-10-05T07:03:59.479Z,13.10
2018-10-05T07:06:33.781Z,13.87
2018-10-05T07:09:08.896Z,10.93
2018-10-05T07:11:43.366Z,13.17
2018-10-05T07:14:17.414Z,13.50
2018-10-05T07:16:51.484Z,11.90
2018-10-05T07:19:26.577Z,12.30
2018-10-05T07:22:01.365Z,11.10
2018-10-05T07:24:35.938Z,10.97
2018-10-05T07:27:09.762Z,12.43
2018-10-05T07:29:43.967Z,12.57
2018-10-05T07:32:18.131Z,13.57
2018-10-05T07:34:52.182Z,13.27
2018-10-05T07:37:26.254Z,13.30
2018-10-05T07:40:00.361Z,10.33
2018-10-05T07:42:34.613Z,8.00
2018-10-05T07:45:08.536Z,11.70
2018-10-05T07:47:42.637Z,10.70
2018-10-05T07:50:16.751Z,10.43
2018-10-05T07:52:50.790Z,9.93
2018-10-05T07:55:25.681Z,10.53
2018-10-05T07:57:59.779Z,10.50
2018-10-05T08:00:34.510Z,12.13
2018-10-05T08:03:09.162Z,9.13
2018-10-05T08:05:43.315Z,10.03
2018-10-05T08:08:17.611Z,10.83
2018-10-05T08:10:51.572Z,10.67
2018-10-05T08:13:26.290Z,13.67
2018-10-05T08:16:00.367Z,11.60
2018-10-05T08:18:34.520Z,9.27
2018-10-05T08:21:08.613Z,9.93
2018-10-05T08:23:42.770Z,7.73
2018-10-05T08:26:17.737Z,10.80
2018-10-05T08:28:52.495Z,8.50
2018-10-05T08:31:26.604Z,8.57
2018-10-05T08:34:00.937Z,14.23
2018-10-05T08:36:35.120Z,12.47
2018-10-05T08:39:10.792Z,8.73
2018-10-05T08:41:45.332Z,8.73
2018-10-05T08:44:19.455Z,5.57
2018-10-05T08:46:54.435Z,9.03
2018-10-05T08:49:28.471Z,10.28
2018-10-05T08:52:02.709Z,7.63
2018-10-05T08:54:36.838Z,9.60
2018-10-05T08:57:10.981Z,8.30
2018-10-05T08:59:45.178Z,11.68
2018-10-05T09:02:19.587Z,10.20
2018-10-05T09:04:53.815Z,10.23
2018-10-05T09:07:28.500Z,10.28
2018-10-05T09:10:03.329Z,7.95
2018-10-05T09:12:37.446Z,9.48
2018-10-05T09:15:11.541Z,9.10
2018-10-05T09:17:46.327Z,11.10
2018-10-05T09:20:20.911Z,10.20
2018-10-05T09:22:55.189Z,9.05
2018-10-05T09:25:29.335Z,6.92
2018-10-05T09:28:03.538Z,6.72
2018-10-05T09:30:38.487Z,8.35
2018-10-05T09:33:12.486Z,8.53
2018-10-05T09:35:46.880Z,8.95
2018-10-05T09:38:21.346Z,7.87
2018-10-05T09:40:55.345Z,10.38
2018-10-05T09:43:30.125Z,7.12
2018-10-05T09:46:04.566Z,6.65
2018-10-05T09:48:38.821Z,8.25
2018-10-05T09:51:13.284Z,8.10
2018-10-05T09:53:48.065Z,9.00
2018-10-05T09:56:22.936Z,9.13
2018-10-05T09:58:57.416Z,6.87
2018-10-05T10:01:36.950Z,8.90
2018-10-05T10:04:10.996Z,9.15
2018-10-05T10:06:44.976Z,9.28
2018-10-05T10:09:19.186Z,7.60
2018-10-05T10:11:54.055Z,7.70
2018-10-05T10:14:28.581Z,7.42
2018-10-05T10:17:02.857Z,9.33
2018-10-05T10:19:37.200Z,5.85
2018-10-05T10:22:11.631Z,8.38
2018-10-05T10:24:45.790Z,9.08
2018-10-05T10:27:20.840Z,9.53
2018-10-05T10:29:55.281Z,9.58
2018-10-05T10:32:30.169Z,6.60
2018-10-05T10:35:04.483Z,10.03
2018-10-05T10:37:38.488Z,11.70
2018-10-05T10:40:13.065Z,6.53
2018-10-05T10:42:47.110Z,10.23
2018-10-05T10:45:22.057Z,10.98
2018-10-05T10:47:57.763Z,7.45
2018-10-05T10:50:31.868Z,7.95
2018-10-05T10:53:06.326Z,8.43
2018-10-05T10:55:40.411Z,9.03
2018-10-05T10:58:14.322Z,7.12
2018-10-05T11:00:49.050Z,7.28
2018-10-05T11:03:23.042Z,8.35
2018-10-05T11:05:57.250Z,7.83
2018-10-05T11:08:33.152Z,7.58
2018-10-05T11:11:07.408Z,7.03
2018-10-05T11:13:41.552Z,9.63
2018-10-05T11:16:16.811Z,11.93
2018-10-05T11:18:51.013Z,9.28
2018-10-05T11:21:25.495Z,9.68
2018-10-05T11:23:59.412Z,7.08
2018-10-05T11:26:34.952Z,10.80
2018-10-05T11:29:09.912Z,8.98
2018-10-05T11:31:45.296Z,9.50
2018-10-05T11:34:19.986Z,5.47
2018-10-05T11:36:54.371Z,8.45
2018-10-05T11:39:28.435Z,8.65
2018-10-05T11:42:03.396Z,6.12
2018-10-05T11:44:37.396Z,9.25
2018-10-05T11:47:12.207Z,9.68
2018-10-05T11:49:47.022Z,5.85
2018-10-05T11:52:21.612Z,9.78
2018-10-05T11:54:55.992Z,6.58
2018-10-05T11:57:30.445Z,5.87
2018-10-05T12:00:05.169Z,8.10
2018-10-05T12:02:39.426Z,7.78
2018-10-05T12:05:14.358Z,6.58
2018-10-05T12:07:48.436Z,4.33
2018-10-05T12:10:23.481Z,9.48
2018-10-05T12:12:57.887Z,5.05
2018-10-05T12:15:32.813Z,8.35
2018-10-05T12:18:07.027Z,6.40
2018-10-05T12:20:41.068Z,5.72
2018-10-05T12:23:15.467Z,8.75
2018-10-05T12:25:49.825Z,7.42
2018-10-05T12:28:24.051Z,9.28
2018-10-05T12:30:58.151Z,6.85
2018-10-05T12:33:32.562Z,5.70
2018-10-05T12:36:06.695Z,4.95
2018-10-05T12:38:40.941Z,7.05
2018-10-05T12:41:15.221Z,6.70
2018-10-05T12:43:50.006Z,9.50
2018-10-05T12:46:25.311Z,5.87
2018-10-05T12:49:00.826Z,5.47
2018-10-05T12:51:35.071Z,8.88
2018-10-05T12:54:09.167Z,7.97
2018-10-05T12:56:43.352Z,6.35
2018-10-05T12:59:17.795Z,4.53
2018-10-05T13:01:52.820Z,5.87
2018-10-05T13:04:27.195Z,8.15
2018-10-05T13:07:02.355Z,3.62
2018-10-05T13:09:36.741Z,7.22
2018-10-05T13:12:11.141Z,5.87
2018-10-05T13:14:46.583Z,37.35
2018-10-05T13:17:21.213Z,8.40
2018-10-05T13:19:55.520Z,6.05
2018-10-05T13:22:29.541Z,7.12
2018-10-05T13:25:03.746Z,5.92
2018-10-05T13:27:38.082Z,6.20
2018-10-05T13:30:12.177Z,6.45
2018-10-05T13:32:46.737Z,6.47
2018-10-05T13:35:20.914Z,6.72
2018-10-05T13:37:55.616Z,7.37
2018-10-05T13:40:29.883Z,6.03
2018-10-05T13:43:05.525Z,6.40
2018-10-05T13:45:39.635Z,6.47
2018-10-05T13:48:14.400Z,6.15
2018-10-05T13:50:50.015Z,3.30
2018-10-05T13:53:24.202Z,4.78
2018-10-05T13:55:58.626Z,6.00
2018-10-05T13:58:32.943Z,3.98
2018-10-05T14:01:07.281Z,3.85
2018-10-05T14:03:41.716Z,3.85
2018-10-05T14:06:17.041Z,5.90
2018-10-05T14:08:51.238Z,5.42
2018-10-05T14:11:26.105Z,5.47
2018-10-05T14:14:00.591Z,4.53
2018-10-05T14:16:34.852Z,3.52
2018-10-05T14:19:08.664Z,3.47
2018-10-05T14:21:43.841Z,3.70
2018-10-05T14:24:18.891Z,7.28
2018-10-05T14:26:53.885Z,2.60
2018-10-05T14:29:28.427Z,5.58
2018-10-05T14:32:02.828Z,4.40
2018-10-05T14:34:36.743Z,3.08
2018-10-05T14:37:10.780Z,3.25
2018-10-05T14:39:44.952Z,4.08
2018-10-05T14:42:19.235Z,2.37
2018-10-05T14:44:53.357Z,2.25
2018-10-05T14:47:27.759Z,3.02
2018-10-05T14:50:02.185Z,1.92
2018-10-05T14:52:37.279Z,1.90
2018-10-05T14:55:11.699Z,3.47
2018-10-05T14:57:46.262Z,2.25
2018-10-05T15:00:20.882Z,5.28
2018-10-05T15:02:55.884Z,2.20
2018-10-05T15:05:30.676Z,2.02
2018-10-05T15:08:04.955Z,2.47
2018-10-05T15:10:39.420Z,2.42
2018-10-05T15:13:13.567Z,2.85
2018-10-05T15:15:47.774Z,5.30
2018-10-05T15:18:22.855Z,2.83
2018-10-05T15:20:57.864Z,3.15
2018-10-05T15:23:32.001Z,2.40
2018-10-05T15:26:06.616Z,2.12
2018-10-05T15:28:40.839Z,5.55
2018-10-05T15:31:15.316Z,4.17
2018-10-05T15:33:49.549Z,3.60
2018-10-05T15:36:24.149Z,3.17
2018-10-05T15:38:58.591Z,5.30
2018-10-05T15:41:32.939Z,3.25
2018-10-05T15:44:07.341Z,3.17
2018-10-05T15:47:00.276Z,5.00
2018-10-05T15:49:35.211Z,2.17
2018-10-05T15:52:10.315Z,4.08
2018-10-05T15:54:45.530Z,2.00
2018-10-05T15:57:19.936Z,2.92
2018-10-05T15:59:54.179Z,2.52
2018-10-05T16:02:28.130Z,3.12
2018-10-05T16:05:02.236Z,4.67
2018-10-05T16:07:36.520Z,4.17
2018-10-05T16:10:10.360Z,2.33
2018-10-05T16:12:45.187Z,5.00
2018-10-05T16:15:19.323Z,4.67
2018-10-05T16:17:53.806Z,3.95
2018-10-05T16:20:28.086Z,3.92
2018-10-05T16:23:02.281Z,3.00
2018-10-05T16:25:36.471Z,4.92
2018-10-05T16:28:10.782Z,4.35
2018-10-05T16:30:45.997Z,4.12
2018-10-05T16:33:20.237Z,4.47
2018-10-05T16:35:54.450Z,3.60
2018-10-05T16:38:29.292Z,2.87
2018-10-05T16:41:03.562Z,5.30
2018-10-05T16:43:38.313Z,4.12
2018-10-05T16:46:12.692Z,5.42
2018-10-05T16:48:47.117Z,3.15
2018-10-05T16:51:21.258Z,11.70
2018-10-05T16:53:55.915Z,8.25
2018-10-05T16:56:30.325Z,2.98
2018-10-05T16:59:11.797Z,4.05
2018-10-05T17:01:46.096Z,8.40
2018-10-05T17:04:20.845Z,5.70
2018-10-05T17:06:55.641Z,4.47
2018-10-05T17:09:30.149Z,3.47
2018-10-05T17:12:04.217Z,5.08
2018-10-05T17:14:38.530Z,3.15
2018-10-05T17:17:12.837Z,5.15
2018-10-05T17:19:47.015Z,5.53
2018-10-05T17:22:21.406Z,3.50
2018-10-05T17:24:55.676Z,4.60
2018-10-05T17:27:29.946Z,5.12
2018-10-05T17:30:04.775Z,4.95
2018-10-05T17:32:38.955Z,5.95
2018-10-05T17:35:13.158Z,3.80
2018-10-05T17:37:47.724Z,3.95
2018-10-05T17:40:22.130Z,4.00
2018-10-05T17:42:56.640Z,5.78
2018-10-05T17:45:30.986Z,4.83
2018-10-05T17:48:05.616Z,3.45
2018-10-05T17:50:39.538Z,5.50
2018-10-05T17:53:13.989Z,6.00
2018-10-05T17:55:48.734Z,4.85
2018-10-05T17:58:22.850Z,5.85
2018-10-05T18:00:57.104Z,6.25
2018-10-05T18:03:32.131Z,3.75
2018-10-05T18:06:06.770Z,3.45
2018-10-05T18:08:41.126Z,5.55
2018-10-05T18:11:15.875Z,4.45
2018-10-05T18:13:50.109Z,10.78
2018-10-05T18:16:25.622Z,6.92
2018-10-05T18:18:59.998Z,6.87
2018-10-05T18:21:34.571Z,4.35
2018-10-05T18:24:09.569Z,6.90
2018-10-05T18:26:43.802Z,6.20
2018-10-05T18:29:18.056Z,7.97
2018-10-05T18:31:52.290Z,5.50
2018-10-05T18:34:26.682Z,5.10
2018-10-05T18:37:01.761Z,6.40
2018-10-05T18:39:35.916Z,7.05
2018-10-05T18:42:09.961Z,6.20
2018-10-05T18:44:44.126Z,7.23
2018-10-05T18:47:18.464Z,9.00
2018-10-05T18:49:53.135Z,6.40
2018-10-05T18:52:27.355Z,6.70
2018-10-05T18:55:01.436Z,6.87
2018-10-05T18:57:36.481Z,8.27
2018-10-05T19:00:11.009Z,6.67
2018-10-05T19:02:45.392Z,7.27
2018-10-05T19:05:20.099Z,6.30
2018-10-05T19:07:54.088Z,8.63
2018-10-05T19:10:28.660Z,9.00
2018-10-05T19:13:02.758Z,7.43
2018-10-05T19:15:37.540Z,6.50
2018-10-05T19:18:11.682Z,6.90
2018-10-05T19:20:46.605Z,8.93
2018-10-05T19:23:21.494Z,11.17
2018-10-05T19:25:56.017Z,9.10
2018-10-05T19:28:30.312Z,10.63
2018-10-05T19:31:04.419Z,9.53
2018-10-05T19:33:39.134Z,11.43
2018-10-05T19:36:14.891Z,8.70
2018-10-05T19:38:48.850Z,8.10
2018-10-05T19:41:22.990Z,10.53
2018-10-05T19:43:57.100Z,9.53
2018-10-05T19:46:31.485Z,8.67
2018-10-05T19:49:05.795Z,10.00
2018-10-05T19:51:40.155Z,10.33
2018-10-05T19:54:14.466Z,7.77
2018-10-05T19:56:48.913Z,6.33
2018-10-05T19:59:23.565Z,9.50
2018-10-05T20:01:57.857Z,11.90
2018-10-05T20:04:32.096Z,9.40
2018-10-05T20:07:07.123Z,7.67
2018-10-05T20:09:41.484Z,9.30
2018-10-05T20:12:16.144Z,9.57
2018-10-05T20:14:53.475Z,8.20
2018-10-05T20:17:27.664Z,8.30
2018-10-05T20:20:02.008Z,6.80
2018-10-05T20:22:36.725Z,8.47
2018-10-05T20:25:11.052Z,7.70
2018-10-05T20:27:44.900Z,7.80
2018-10-05T20:30:19.069Z,7.80
2018-10-05T20:32:53.472Z,8.33
2018-10-05T20:35:27.807Z,9.20
2018-10-05T20:38:02.975Z,8.47
2018-10-05T20:40:38.002Z,7.67
2018-10-05T20:43:13.072Z,6.70
2018-10-05T20:45:48.155Z,9.43
2018-10-05T20:48:22.511Z,8.50
2018-10-05T20:50:56.933Z,10.70
2018-10-05T20:53:31.160Z,8.20
2018-10-05T20:56:05.350Z,9.87
2018-10-05T20:58:39.507Z,10.30
2018-10-05T21:01:14.336Z,8.97
2018-10-05T21:03:48.411Z,6.90
2018-10-05T21:06:22.603Z,9.13
2018-10-05T21:08:56.886Z,11.03
2018-10-05T21:11:31.026Z,10.67
2018-10-05T21:14:05.567Z,9.30
2018-10-05T21:16:39.569Z,9.60
2018-10-05T21:19:13.715Z,10.63
2018-10-05T21:21:47.991Z,10.87
2018-10-05T21:24:22.485Z,11.17
2018-10-05T21:26:56.347Z,12.60
2018-10-05T21:29:30.980Z,16.63
2018-10-05T21:32:05.974Z,10.33
2018-10-05T21:34:40.207Z,11.47
2018-10-05T21:37:14.596Z,11.93
2018-10-05T21:39:48.847Z,11.60
2018-10-05T21:42:22.908Z,11.07
2018-10-05T21:44:58.246Z,8.80
2018-10-05T21:47:32.613Z,8.33
2018-10-05T21:50:07.737Z,10.93
2018-10-05T21:52:42.900Z,17.97
2018-10-05T21:55:16.993Z,15.83
2018-10-05T21:57:51.842Z,17.33
2018-10-05T22:00:30.913Z,19.37
2018-10-05T22:03:05.747Z,16.73
2018-10-05T22:05:40.099Z,12.23
2018-10-05T22:08:14.561Z,11.40
2018-10-05T22:10:48.846Z,10.60
2018-10-05T22:13:23.221Z,12.27
2018-10-05T22:15:57.576Z,8.93
2018-10-05T22:18:31.895Z,13.77
2018-10-05T22:21:06.737Z,7.53
2018-10-05T22:23:41.602Z,9.80
2018-10-05T22:26:16.801Z,13.73
2018-10-05T22:28:50.865Z,10.77
2018-10-05T22:31:25.021Z,15.50
2018-10-05T22:33:59.495Z,15.63
2018-10-05T22:36:33.616Z,14.17
2018-10-05T22:39:08.001Z,9.40
2018-10-05T22:41:42.135Z,10.33
2018-10-05T22:44:16.576Z,12.13
2018-10-05T22:46:50.831Z,8.40
2018-10-05T22:49:24.874Z,10.43
2018-10-05T22:51:59.144Z,10.60
2018-10-05T22:54:33.574Z,10.80
2018-10-05T22:57:08.656Z,9.70
2018-10-05T22:59:43.823Z,6.23
2018-10-05T23:02:18.571Z,9.53
2018-10-05T23:04:53.869Z,8.00
2018-10-05T23:07:28.302Z,7.80
2018-10-05T23:10:02.334Z,9.40
2018-10-05T23:12:36.813Z,8.33
2018-10-05T23:15:11.195Z,8.67
2018-10-05T23:17:45.416Z,6.83
2018-10-05T23:20:19.680Z,10.10
2018-10-05T23:22:55.139Z,6.93
2018-10-05T23:25:29.163Z,7.03
2018-10-05T23:28:04.214Z,9.53
2018-10-05T23:30:38.276Z,8.03
2018-10-05T23:33:12.695Z,9.40
2018-10-05T23:35:47.572Z,11.60
2018-10-05T23:38:21.619Z,14.83
2018-10-05T23:40:56.499Z,11.73
2018-10-05T23:43:30.739Z,19.57
2018-10-05T23:46:05.646Z,12.63
2018-10-05T23:48:39.984Z,12.47
2018-10-05T23:51:21.489Z,7.90
2018-10-05T23:53:55.754Z,8.60
2018-10-05T23:56:29.949Z,7.97
2018-10-05T23:59:04.279Z,7.30
